createdAt,value
2018-08-22T00:00:33.584Z,101741.48
2018-08-22T00:05:26.050Z,101742.56
2018-08-22T00:10:18.974Z,101737.58
2018-08-22T00:15:11.558Z,101736.95
2018-08-22T00:20:04.125Z,101737.73
2018-08-22T00:24:56.606Z,101742.87
2018-08-22T00:29:49.088Z,101742.80
2018-08-22T00:34:41.589Z,101749.31
2018-08-22T00:39:34.576Z,101749.52
2018-08-22T00:44:27.099Z,101741.27
2018-08-22T00:49:19.569Z,101745.00
2018-08-22T00:54:12.026Z,101741.09
2018-08-22T00:59:04.530Z,101741.04
2018-08-22T01:03:57.172Z,101739.90
2018-08-22T01:08:49.608Z,101743.13
2018-08-22T01:13:48.916Z,101739.01
2018-08-22T01:18:41.369Z,101733.74
2018-08-22T01:23:33.826Z,101738.87
2018-08-22T01:28:26.278Z,101733.86
2018-08-22T01:33:18.863Z,101736.80
2018-08-22T01:38:11.424Z,101735.08
2018-08-22T01:43:03.941Z,101734.50
2018-08-22T01:47:56.419Z,101721.09
2018-08-22T01:52:48.941Z,101718.83
2018-08-22T01:57:41.458Z,101713.30
2018-08-22T02:02:33.954Z,101708.02
2018-08-22T02:07:26.451Z,101704.06
2018-08-22T02:12:18.897Z,101704.27
2018-08-22T02:17:11.403Z,101705.02
2018-08-22T02:22:03.883Z,101706.61
2018-08-22T02:26:56.515Z,101697.83
2018-08-22T02:31:49.227Z,101701.03
2018-08-22T02:36:41.635Z,101708.30
2018-08-22T02:41:34.085Z,101706.84
2018-08-22T02:46:26.672Z,101701.84
2018-08-22T02:51:19.154Z,101702.88
2018-08-22T02:56:11.606Z,101699.77
2018-08-22T03:01:04.100Z,101690.23
2018-08-22T03:05:56.575Z,101698.84
2018-08-22T03:10:49.092Z,101697.96
2018-08-22T03:15:41.596Z,101701.95
2018-08-22T03:20:34.082Z,101699.95
2018-08-22T03:25:26.588Z,101697.47
2018-08-22T03:30:19.084Z,101693.05
2018-08-22T03:35:11.561Z,101689.50
2018-08-22T03:40:04.007Z,101698.45
2018-08-22T03:44:56.439Z,101700.52
2018-08-22T03:49:48.956Z,101695.27
2018-08-22T03:54:41.400Z,101695.69
2018-08-22T03:59:33.906Z,101692.39
2018-08-22T04:04:26.495Z,101698.05
2018-08-22T04:09:19.024Z,101699.31
2018-08-22T04:14:11.503Z,101696.52
2018-08-22T04:19:04.209Z,101698.12
2018-08-22T04:23:56.735Z,101689.62
2018-08-22T04:28:49.245Z,101692.05
2018-08-22T04:33:41.801Z,101688.27
2018-08-22T04:38:34.297Z,101692.88
2018-08-22T04:43:26.795Z,101685.78
2018-08-22T04:48:19.338Z,101687.91
2018-08-22T04:53:11.836Z,101690.08
2018-08-22T04:58:04.481Z,101689.25
2018-08-22T05:02:57.039Z,101696.88
2018-08-22T05:07:49.544Z,101693.92
2018-08-22T05:12:42.095Z,101694.23
2018-08-22T05:17:34.935Z,101686.42
2018-08-22T05:22:27.504Z,101684.58
2018-08-22T05:27:19.992Z,101695.04
2018-08-22T05:32:12.997Z,101690.19
2018-08-22T05:37:05.579Z,101690.30
2018-08-22T05:41:58.017Z,101685.75
2018-08-22T05:46:50.613Z,101685.31
2018-08-22T05:51:43.178Z,101680.75
2018-08-22T05:56:35.731Z,101682.13
2018-08-22T06:01:28.308Z,101679.54
2018-08-22T06:06:20.850Z,101671.48
2018-08-22T06:11:13.338Z,101671.34
2018-08-22T06:16:06.790Z,101672.89
2018-08-22T06:20:59.411Z,101671.23
2018-08-22T06:25:51.950Z,101678.72
2018-08-22T06:30:44.586Z,101679.42
2018-08-22T06:35:37.255Z,101680.86
2018-08-22T06:40:29.815Z,101674.17
2018-08-22T06:45:22.357Z,101669.16
2018-08-22T06:50:14.922Z,101663.54
2018-08-22T06:55:07.491Z,101662.33
2018-08-22T07:00:00.090Z,101659.69
2018-08-22T07:04:52.605Z,101661.76
2018-08-22T07:09:45.135Z,101663.11
2018-08-22T07:14:37.663Z,101663.45
2018-08-22T07:19:30.216Z,101654.29
2018-08-22T07:24:22.897Z,101650.48
2018-08-22T07:29:15.436Z,101646.09
2018-08-22T07:34:07.912Z,101647.94
2018-08-22T07:39:01.213Z,101641.23
2018-08-22T07:43:53.856Z,101644.16
2018-08-22T07:48:46.490Z,101641.09
2018-08-22T07:53:39.043Z,101641.40
2018-08-22T07:58:31.588Z,101642.44
2018-08-22T08:03:24.225Z,101640.62
2018-08-22T08:08:16.909Z,101637.69
2018-08-22T08:13:29.180Z,101634.72
2018-08-22T08:18:21.744Z,101634.02
2018-08-22T08:23:14.467Z,101624.38
2018-08-22T08:28:06.944Z,101619.98
2018-08-22T08:32:59.425Z,101621.67
2018-08-22T08:37:51.994Z,101614.82
2018-08-22T08:42:44.543Z,101611.24
2018-08-22T08:47:37.133Z,101606.25
2018-08-22T08:52:30.927Z,101604.88
2018-08-22T08:57:24.530Z,101593.59
2018-08-22T09:02:17.067Z,101587.55
2018-08-22T09:07:09.583Z,101584.58
2018-08-22T09:12:02.441Z,101580.36
2018-08-22T09:16:55.545Z,101570.36
2018-08-22T09:21:48.409Z,101567.34
2018-08-22T09:26:41.484Z,101561.94
2018-08-22T09:31:34.107Z,101571.38
2018-08-22T09:36:26.815Z,101572.59
2018-08-22T09:41:19.626Z,101561.33
2018-08-22T09:46:12.145Z,101548.91
2018-08-22T09:51:05.116Z,101542.81
2018-08-22T09:55:57.623Z,101539.70
2018-08-22T10:01:21.608Z,101535.27
2018-08-22T10:06:27.846Z,101531.94
2018-08-22T10:11:20.358Z,101526.34
2018-08-22T10:16:12.849Z,101520.91
2018-08-22T10:21:05.374Z,101520.86
2018-08-22T10:25:57.978Z,101520.53
2018-08-22T10:30:53.431Z,101509.92
2018-08-22T10:35:45.931Z,101508.91
2018-08-22T10:40:38.524Z,101503.22
2018-08-22T10:45:31.288Z,101498.69
2018-08-22T10:50:24.107Z,101501.45
2018-08-22T10:55:16.719Z,101506.25
2018-08-22T11:00:10.135Z,101493.47
2018-08-22T11:05:02.683Z,101485.00
2018-08-22T11:09:55.321Z,101482.66
2018-08-22T11:14:47.936Z,101472.90
2018-08-22T11:19:40.640Z,101465.92
2018-08-22T11:24:50.871Z,101465.86
2018-08-22T11:30:01.184Z,101459.69
2018-08-22T11:34:52.501Z,101459.16
2018-08-22T11:39:46.573Z,101451.36
2018-08-22T11:44:39.178Z,101449.67
2018-08-22T11:49:32.203Z,101449.20
2018-08-22T11:54:24.776Z,101451.35
2018-08-22T11:59:17.603Z,101443.48
2018-08-22T12:04:10.299Z,101432.97
2018-08-22T12:09:04.419Z,101426.66
2018-08-22T12:13:57.242Z,101418.74
2018-08-22T12:18:49.723Z,101411.55
2018-08-22T12:23:42.337Z,101409.04
2018-08-22T12:28:34.859Z,101397.38
2018-08-22T12:33:27.451Z,101397.38
2018-08-22T12:38:19.973Z,101403.86
2018-08-22T12:43:12.485Z,101397.09
2018-08-22T12:48:05.144Z,101385.20
2018-08-22T12:52:57.680Z,101372.17
2018-08-22T12:57:50.201Z,101370.34
2018-08-22T13:02:42.894Z,101370.56
2018-08-22T13:07:35.454Z,101366.41
2018-08-22T13:12:28.611Z,101361.64
2018-08-22T13:17:21.208Z,101355.86
2018-08-22T13:22:14.136Z,101349.95
2018-08-22T13:27:06.656Z,101344.91
2018-08-22T13:31:59.276Z,101331.70
2018-08-22T13:36:51.806Z,101324.67
2018-08-22T13:41:44.449Z,101322.16
2018-08-22T13:46:36.919Z,101314.86
2018-08-22T13:51:29.494Z,101307.75
2018-08-22T13:56:22.096Z,101312.16
2018-08-22T14:01:14.777Z,101302.63
2018-08-22T14:06:16.074Z,101308.91
2018-08-22T14:11:08.479Z,101298.79
2018-08-22T14:16:01.043Z,101292.45
2018-08-22T14:20:53.693Z,101290.07
2018-08-22T14:25:46.236Z,101291.11
2018-08-22T14:30:38.742Z,101287.56
2018-08-22T14:35:31.194Z,101273.07
2018-08-22T14:40:23.705Z,101266.36
2018-08-22T14:45:16.933Z,101252.03
2018-08-22T14:50:09.600Z,101255.21
2018-08-22T14:55:02.797Z,101251.80
2018-08-22T14:59:55.351Z,101249.95
2018-08-22T15:04:47.869Z,101244.56
2018-08-22T15:09:40.366Z,101240.73
2018-08-22T15:14:32.896Z,101237.33
2018-08-22T15:19:25.563Z,101228.16
2018-08-22T15:24:17.996Z,101237.48
2018-08-22T15:29:10.484Z,101223.38
2018-08-22T15:34:02.983Z,101225.73
2018-08-22T15:38:55.396Z,101212.64
2018-08-22T15:43:48.154Z,101202.18
2018-08-22T15:48:40.720Z,101203.11
2018-08-22T15:53:33.435Z,101195.14
2018-08-22T15:58:25.940Z,101201.34
2018-08-22T16:03:18.787Z,101196.27
2018-08-22T16:08:11.915Z,101197.35
2018-08-22T16:13:05.615Z,101196.89
2018-08-22T16:17:58.414Z,101187.74
2018-08-22T16:22:50.900Z,101173.48
2018-08-22T16:27:48.848Z,101176.63
2018-08-22T16:32:41.329Z,101164.41
2018-08-22T16:37:33.836Z,101166.75
2018-08-22T16:42:30.176Z,101150.31
2018-08-22T16:47:27.415Z,101158.89
2018-08-22T16:52:20.057Z,101157.88
2018-08-22T16:57:12.542Z,101150.28
2018-08-22T17:02:05.666Z,101156.66
2018-08-22T17:07:02.831Z,101153.41
2018-08-22T17:11:55.256Z,101150.78
2018-08-22T17:16:47.762Z,101153.21
2018-08-22T17:21:40.309Z,101147.31
2018-08-22T17:26:32.804Z,101142.59
2018-08-22T17:31:26.674Z,101136.60
2018-08-22T17:36:19.286Z,101136.94
2018-08-22T17:41:11.983Z,101137.31
2018-08-22T17:46:07.507Z,101135.21
2018-08-22T17:51:00.139Z,101138.45
2018-08-22T17:55:52.624Z,101134.77
2018-08-22T18:00:45.135Z,101137.42
2018-08-22T18:05:37.659Z,101128.98
2018-08-22T18:10:33.325Z,101133.60
2018-08-22T18:15:25.865Z,101138.38
2018-08-22T18:20:18.507Z,101136.06
2018-08-22T18:25:10.992Z,101134.30
2018-08-22T18:30:03.547Z,101140.86
2018-08-22T18:35:05.184Z,101142.19
2018-08-22T18:40:10.319Z,101149.02
2018-08-22T18:45:02.832Z,101150.86
2018-08-22T18:49:55.343Z,101159.91
2018-08-22T18:54:47.974Z,101163.86
2018-08-22T18:59:40.447Z,101151.38
2018-08-22T19:04:32.904Z,101150.14
2018-08-22T19:09:25.363Z,101149.59
2018-08-22T19:14:48.366Z,101147.86
2018-08-22T19:19:43.676Z,101154.95
2018-08-22T19:24:36.136Z,101147.35
2018-08-22T19:29:28.685Z,101152.19
2018-08-22T19:34:21.244Z,101158.06
2018-08-22T19:39:13.744Z,101154.90
2018-08-22T19:44:06.220Z,101144.27
2018-08-22T19:49:00.249Z,101151.28
2018-08-22T19:54:03.491Z,101144.28
2018-08-22T19:58:56.309Z,101150.95
2018-08-22T20:03:52.919Z,101148.03
2018-08-22T20:08:45.371Z,101151.30
2018-08-22T20:13:48.879Z,101146.02
2018-08-22T20:18:41.447Z,101144.64
2018-08-22T20:23:34.226Z,101143.73
2018-08-22T20:28:26.769Z,101147.52
2018-08-22T20:33:19.312Z,101144.58
2018-08-22T20:38:12.628Z,101146.69
2018-08-22T20:43:07.476Z,101152.73
2018-08-22T20:48:05.821Z,101147.70
2018-08-22T20:53:00.416Z,101151.27
2018-08-22T20:57:52.928Z,101148.48
2018-08-22T21:02:45.452Z,101150.75
2018-08-22T21:07:38.668Z,101148.73
2018-08-22T21:12:31.106Z,101141.74
2018-08-22T21:17:23.618Z,101134.78
2018-08-22T21:22:27.427Z,101136.89
2018-08-22T21:27:19.891Z,101135.70
2018-08-22T21:32:12.353Z,101141.33
2018-08-22T21:37:20.983Z,101135.84
2018-08-22T21:42:15.587Z,101138.86
2018-08-22T21:47:08.127Z,101139.02
2018-08-22T21:52:00.958Z,101140.98
2018-08-22T21:56:53.817Z,101138.37
2018-08-22T22:01:52.060Z,101129.84
2018-08-22T22:06:44.736Z,101134.02
2018-08-22T22:11:37.224Z,101126.30
2018-08-22T22:16:30.733Z,101126.25
2018-08-22T22:21:23.232Z,101114.22
2018-08-22T22:26:17.064Z,101114.06
2018-08-22T22:31:11.403Z,101109.73
2018-08-22T22:36:03.919Z,101108.02
2018-08-22T22:40:56.420Z,101105.99
2018-08-22T22:45:49.240Z,101105.91
2018-08-22T22:50:41.689Z,101107.62
2018-08-22T22:55:34.215Z,101100.09
2018-08-22T23:00:28.963Z,101098.42
2018-08-22T23:05:21.486Z,101095.61
2018-08-22T23:10:14.589Z,101095.77
2018-08-22T23:15:09.796Z,101088.20
2018-08-22T23:20:31.676Z,101080.70
2018-08-22T23:25:24.493Z,101080.23
2018-08-22T23:30:24.212Z,101076.52
2018-08-22T23:35:25.966Z,101073.39
2018-08-22T23:40:18.782Z,101069.09
2018-08-22T23:45:11.642Z,101062.63
2018-08-22T23:50:04.341Z,101059.47
2018-08-22T23:54:56.825Z,101050.27
2018-08-22T23:59:49.282Z,101049.30
